createdAt,value
2023-02-09T01:02:11.398Z,70.56
2023-02-09T01:05:02.043Z,67.06
2023-02-09T01:07:34.303Z,63.85
2023-02-09T01:10:03.182Z,62.10
2023-02-09T01:12:31.331Z,61.38
2023-02-09T01:15:01.943Z,61.19
2023-02-09T01:17:33.865Z,59.57
2023-02-09T01:20:01.344Z,58.14
2023-02-09T01:22:28.841Z,57.93
2023-02-09T01:24:57.003Z,57.93
2023-02-09T01:27:24.816Z,58.53
2023-02-09T01:29:52.719Z,57.80
2023-02-09T01:32:20.812Z,56.76
2023-02-09T01:34:52.664Z,56.08
2023-02-09T01:37:19.980Z,56.59
2023-02-09T01:39:47.580Z,57.05
2023-02-09T01:42:19.038Z,56.52
2023-02-09T01:44:47.109Z,55.46
2023-02-09T01:47:17.813Z,55.65
2023-02-09T01:49:46.730Z,56.07
2023-02-09T01:52:19.476Z,56.30
2023-02-09T01:54:54.146Z,56.06
2023-02-09T01:57:31.287Z,55.68
2023-02-09T02:00:04.010Z,55.36
2023-02-09T02:02:47.458Z,55.65
2023-02-09T02:05:14.926Z,55.37
2023-02-09T02:08:01.868Z,54.56
2023-02-09T02:10:30.577Z,53.96
2023-02-09T02:12:57.826Z,54.66
2023-02-09T02:15:27.293Z,55.49
2023-02-09T02:18:19.568Z,55.16
2023-02-09T02:21:13.340Z,54.22
2023-02-09T02:23:48.705Z,54.52
2023-02-09T02:26:43.462Z,55.14
2023-02-09T02:29:35.820Z,54.72
2023-02-09T02:32:21.202Z,54.20
2023-02-09T02:35:22.540Z,54.79
2023-02-09T02:37:59.306Z,55.40
2023-02-09T02:40:38.006Z,55.75
2023-02-09T02:43:25.626Z,54.55
2023-02-09T02:46:05.975Z,54.33
2023-02-09T02:48:39.777Z,54.96
2023-02-09T02:51:26.032Z,55.53
2023-02-09T02:53:56.505Z,54.50
2023-02-09T02:56:28.319Z,54.30
2023-02-09T02:58:57.236Z,54.26
2023-02-09T03:01:26.207Z,55.26
2023-02-09T03:03:53.773Z,55.34
2023-02-09T03:06:20.994Z,54.42
2023-02-09T03:08:49.174Z,53.82
2023-02-09T03:11:17.846Z,54.36
2023-02-09T03:14:21.862Z,54.88
2023-02-09T03:17:29.681Z,54.93
2023-02-09T03:20:08.497Z,54.23
2023-02-09T03:22:42.194Z,54.05
2023-02-09T03:25:18.340Z,54.86
2023-02-09T03:27:51.137Z,55.41
2023-02-09T03:30:18.416Z,54.29
2023-02-09T03:32:46.427Z,53.81
2023-02-09T03:35:16.506Z,53.86
2023-02-09T03:37:46.819Z,55.19
2023-02-09T03:40:14.995Z,55.50
2023-02-09T03:42:42.404Z,54.48
2023-02-09T03:45:09.939Z,53.68
2023-02-09T03:47:37.286Z,53.92
2023-02-09T03:50:07.679Z,54.57
2023-02-09T03:52:37.489Z,55.41
2023-02-09T03:55:05.461Z,54.17
2023-02-09T03:57:32.710Z,53.71
2023-02-09T04:00:12.873Z,54.30
2023-02-09T04:02:42.909Z,54.64
2023-02-09T04:05:11.082Z,54.71
2023-02-09T04:07:41.911Z,53.36
2023-02-09T04:10:10.887Z,53.01
2023-02-09T04:12:38.023Z,53.49
2023-02-09T04:15:12.496Z,54.17
2023-02-09T04:17:40.006Z,53.88
2023-02-09T04:20:08.450Z,52.33
2023-02-09T04:22:37.686Z,52.13
2023-02-09T04:25:05.252Z,52.54
2023-02-09T04:27:32.811Z,53.00
2023-02-09T04:30:00.359Z,53.16
2023-02-09T04:32:27.513Z,52.61
2023-02-09T04:34:54.609Z,52.27
2023-02-09T04:37:21.892Z,52.99
2023-02-09T04:39:49.262Z,53.80
2023-02-09T04:42:16.588Z,52.88
2023-02-09T04:45:37.509Z,51.67
2023-02-09T04:48:08.568Z,52.29
2023-02-09T04:50:38.848Z,53.79
2023-02-09T04:53:06.262Z,53.29
2023-02-09T04:55:44.482Z,52.97
2023-02-09T04:58:31.619Z,53.19
2023-02-09T05:00:59.076Z,53.79
2023-02-09T05:03:26.406Z,54.38
2023-02-09T05:06:01.272Z,53.40
2023-02-09T05:08:28.977Z,52.36
2023-02-09T05:10:56.344Z,53.21
2023-02-09T05:13:23.962Z,54.37
2023-02-09T05:15:51.274Z,54.10
2023-02-09T05:18:18.557Z,52.90
2023-02-09T05:20:46.383Z,52.32
2023-02-09T05:23:14.573Z,52.51
2023-02-09T05:25:47.977Z,53.76
2023-02-09T05:28:15.546Z,53.38
2023-02-09T05:30:43.174Z,52.72
2023-02-09T05:33:10.986Z,52.71
2023-02-09T05:35:38.867Z,52.95
2023-02-09T05:38:06.282Z,53.40
2023-02-09T05:40:34.164Z,52.58
2023-02-09T05:43:02.521Z,51.80
2023-02-09T05:45:29.887Z,52.07
2023-02-09T05:47:56.933Z,52.95
2023-02-09T05:50:24.434Z,53.36
2023-02-09T05:52:58.862Z,52.57
2023-02-09T05:55:26.310Z,52.22
2023-02-09T05:57:53.776Z,52.34
2023-02-09T06:00:23.780Z,52.69
2023-02-09T06:02:52.001Z,53.12
2023-02-09T06:05:22.115Z,51.98
2023-02-09T06:07:49.393Z,51.28
2023-02-09T06:10:17.730Z,52.16
2023-02-09T06:12:44.880Z,53.45
2023-02-09T06:15:12.195Z,53.24
2023-02-09T06:17:46.501Z,52.00
2023-02-09T06:20:13.968Z,51.12
2023-02-09T06:23:02.282Z,51.22
2023-02-09T06:25:35.658Z,52.34
2023-02-09T06:28:02.936Z,51.05
2023-02-09T06:30:30.206Z,48.69
2023-02-09T06:32:57.284Z,47.36
2023-02-09T06:35:33.556Z,46.98
2023-02-09T06:38:04.265Z,45.96
2023-02-09T06:40:31.575Z,46.33
2023-02-09T06:42:59.294Z,46.26
2023-02-09T06:45:26.588Z,44.75
2023-02-09T06:47:53.736Z,45.23
2023-02-09T06:50:23.287Z,44.42
2023-02-09T06:52:50.759Z,43.26
2023-02-09T06:55:18.299Z,42.83
2023-02-09T06:57:45.812Z,42.58
2023-02-09T07:00:14.177Z,42.98
2023-02-09T07:56:10.230Z,40.08
2023-02-09T07:58:40.212Z,38.67
2023-02-09T08:01:08.241Z,38.15
2023-02-09T08:03:35.638Z,37.66
2023-02-09T08:06:41.121Z,36.55
2023-02-09T08:09:14.069Z,36.60
2023-02-09T08:11:51.149Z,38.29
2023-02-09T08:14:40.049Z,36.53
2023-02-09T08:17:29.586Z,36.09
2023-02-09T08:20:01.254Z,36.24
2023-02-09T08:22:33.594Z,35.93
2023-02-09T08:25:04.122Z,36.93
2023-02-09T08:27:31.480Z,34.99
2023-02-09T08:29:59.078Z,33.67
2023-02-09T08:32:26.483Z,32.78
2023-02-09T08:34:54.395Z,32.59
2023-02-09T08:37:27.477Z,33.91
2023-02-09T08:39:57.706Z,32.91
2023-02-09T08:42:28.231Z,34.10
2023-02-09T08:44:55.373Z,33.65
2023-02-09T08:47:25.358Z,34.46
2023-02-09T08:49:52.409Z,34.19
2023-02-09T08:52:21.979Z,33.66
2023-02-09T08:54:49.081Z,33.32
2023-02-09T08:57:16.436Z,33.56
2023-02-09T08:59:46.418Z,34.72
2023-02-09T09:02:13.443Z,35.20
2023-02-09T09:04:40.572Z,36.23
2023-02-09T09:07:07.781Z,37.37
2023-02-09T09:09:34.965Z,39.02
2023-02-09T09:12:02.571Z,39.32
2023-02-09T09:14:30.248Z,39.78
2023-02-09T09:17:00.628Z,40.14
2023-02-09T09:19:29.341Z,40.55
2023-02-09T09:21:58.369Z,42.34
2023-02-09T09:24:28.429Z,42.56
2023-02-09T09:26:56.163Z,43.12
2023-02-09T09:29:23.751Z,43.74
2023-02-09T09:31:51.113Z,43.78
2023-02-09T09:34:18.419Z,44.35
2023-02-09T09:36:45.679Z,44.59
2023-02-09T09:39:12.930Z,45.47
2023-02-09T09:41:40.536Z,45.70
2023-02-09T09:44:15.838Z,46.42
2023-02-09T09:46:44.894Z,46.37
2023-02-09T09:49:26.717Z,47.26
2023-02-09T09:52:00.632Z,47.26
2023-02-09T09:54:30.427Z,47.39
2023-02-09T09:56:57.589Z,47.22
2023-02-09T09:59:30.932Z,47.01
2023-02-09T10:01:58.035Z,46.72
2023-02-09T10:04:25.412Z,46.44
2023-02-09T10:06:58.512Z,45.44
2023-02-09T10:09:39.257Z,44.92
2023-02-09T10:12:20.991Z,45.69
2023-02-09T10:14:48.269Z,43.97
2023-02-09T10:17:17.976Z,42.45
2023-02-09T10:19:59.670Z,40.16
2023-02-09T10:22:26.715Z,39.29
2023-02-09T10:24:54.416Z,38.51
2023-02-09T10:27:21.630Z,38.00
2023-02-09T10:29:49.139Z,37.48
2023-02-09T10:32:25.267Z,36.59
2023-02-09T10:34:53.849Z,35.25
2023-02-09T10:37:39.204Z,34.57
2023-02-09T10:40:22.787Z,33.95
2023-02-09T10:43:00.391Z,33.81
2023-02-09T10:45:41.918Z,33.18
2023-02-09T10:48:12.271Z,32.37
2023-02-09T10:50:55.743Z,31.75
2023-02-09T10:53:47.337Z,31.19
2023-02-09T10:56:17.539Z,29.96
2023-02-09T10:59:13.932Z,28.68
2023-02-09T11:01:42.410Z,28.29
2023-02-09T11:04:23.909Z,30.59
2023-02-09T11:06:57.131Z,29.72
2023-02-09T11:09:46.637Z,31.53
2023-02-09T11:12:14.458Z,28.54
2023-02-09T11:14:44.823Z,29.64
2023-02-09T11:17:24.870Z,28.91
2023-02-09T11:20:35.958Z,26.99
2023-02-09T11:23:33.955Z,29.49
2023-02-09T11:26:04.728Z,28.09
2023-02-09T11:28:50.903Z,28.53
2023-02-09T11:31:27.049Z,28.15
2023-02-09T11:33:58.937Z,28.46
2023-02-09T11:36:54.333Z,28.46
2023-02-09T11:39:44.784Z,28.46
2023-02-09T11:42:33.208Z,28.14
2023-02-09T11:45:13.442Z,28.75
2023-02-09T11:47:59.986Z,28.87
2023-02-09T11:50:51.864Z,30.25
2023-02-09T11:53:38.476Z,29.62
2023-02-09T11:56:08.358Z,29.45
2023-02-09T11:58:47.542Z,29.04
2023-02-09T12:01:23.580Z,27.34
2023-02-09T12:04:24.738Z,27.32
2023-02-09T12:06:55.689Z,28.76
2023-02-09T12:09:25.874Z,28.82
2023-02-09T12:12:03.479Z,26.66
2023-02-09T12:15:06.075Z,26.20
2023-02-09T12:17:42.996Z,27.44
2023-02-09T12:20:30.045Z,27.67
2023-02-09T12:23:08.051Z,28.85
2023-02-09T12:25:59.801Z,28.44
2023-02-09T12:28:27.718Z,29.44
2023-02-09T12:30:58.536Z,28.59
2023-02-09T12:33:25.983Z,28.62
2023-02-09T12:36:08.698Z,28.42
2023-02-09T12:39:04.589Z,29.25
2023-02-09T12:41:40.976Z,28.30
2023-02-09T12:44:11.677Z,29.51
2023-02-09T12:46:45.136Z,28.66
2023-02-09T12:49:12.773Z,29.40
2023-02-09T12:51:55.866Z,30.08
2023-02-09T12:54:45.352Z,30.17
2023-02-09T12:57:16.656Z,30.40
2023-02-09T12:59:53.715Z,30.23
2023-02-09T13:02:25.436Z,30.75
2023-02-09T13:05:02.423Z,30.28
2023-02-09T13:08:00.778Z,29.91
2023-02-09T13:10:29.577Z,29.88
2023-02-09T13:13:09.395Z,29.79
2023-02-09T13:15:51.398Z,29.52
2023-02-09T13:18:48.646Z,28.85
2023-02-09T13:21:26.915Z,27.64
2023-02-09T13:23:54.757Z,28.48
2023-02-09T13:26:25.750Z,28.06
2023-02-09T13:29:20.552Z,26.86
2023-02-09T13:32:00.870Z,26.47
2023-02-09T13:34:35.865Z,26.86
2023-02-09T13:37:29.024Z,26.95
2023-02-09T13:40:00.881Z,27.93
2023-02-09T13:42:34.393Z,27.78
2023-02-09T13:45:01.571Z,27.94
2023-02-09T13:47:28.977Z,28.78
2023-02-09T13:50:04.823Z,29.43
2023-02-09T13:52:36.912Z,28.71
2023-02-09T13:55:27.406Z,27.39
2023-02-09T13:58:00.359Z,27.07
2023-02-09T14:00:38.748Z,27.31
2023-02-09T14:03:16.706Z,26.78
2023-02-09T14:05:51.656Z,27.67
2023-02-09T14:08:19.646Z,27.89
2023-02-09T14:11:36.494Z,28.79
2023-02-09T14:14:54.430Z,29.64
2023-02-09T14:17:26.173Z,30.08
2023-02-09T14:19:54.661Z,29.50
2023-02-09T14:22:36.123Z,29.31
2023-02-09T14:25:13.968Z,30.20
2023-02-09T14:27:47.405Z,30.53
2023-02-09T14:30:25.913Z,31.07
2023-02-09T14:32:57.128Z,31.42
2023-02-09T14:35:34.759Z,31.21
2023-02-09T14:38:02.708Z,31.91
2023-02-09T14:40:32.024Z,32.17
2023-02-09T14:43:27.386Z,32.23
2023-02-09T14:46:01.665Z,32.43
2023-02-09T14:48:29.921Z,32.87
2023-02-09T14:51:01.913Z,32.50
2023-02-09T14:53:31.962Z,32.62
2023-02-09T14:55:59.649Z,33.95
2023-02-09T14:58:31.375Z,34.26
2023-02-09T15:01:00.389Z,34.93
2023-02-09T15:03:28.090Z,34.84
2023-02-09T15:06:01.122Z,34.89
2023-02-09T15:08:31.751Z,35.77
2023-02-09T15:11:24.251Z,35.18
2023-02-09T15:13:53.445Z,35.93
2023-02-09T15:16:21.772Z,36.15
2023-02-09T15:18:49.060Z,36.16
2023-02-09T15:21:16.299Z,36.77
2023-02-09T15:23:43.524Z,37.21
2023-02-09T15:26:16.638Z,38.04
2023-02-09T15:28:46.876Z,39.01
2023-02-09T15:31:16.288Z,38.90
2023-02-09T15:33:43.801Z,39.72
2023-02-09T15:36:16.777Z,39.74
2023-02-09T15:38:44.155Z,39.99
2023-02-09T15:41:36.207Z,40.25
2023-02-09T15:44:38.439Z,39.98
2023-02-09T15:47:24.180Z,41.19
2023-02-09T15:49:51.202Z,41.56
2023-02-09T15:52:18.821Z,42.37
2023-02-09T15:54:46.016Z,44.39
2023-02-09T15:57:13.957Z,45.48
2023-02-09T15:59:41.685Z,46.66
2023-02-09T16:02:12.895Z,47.56
2023-02-09T19:00:30.598Z,61.44
2023-02-09T19:03:10.568Z,59.97
2023-02-09T19:05:38.097Z,57.77
2023-02-09T19:08:07.514Z,57.05
2023-02-09T19:10:41.035Z,56.84
2023-02-09T19:13:14.983Z,57.11
2023-02-09T19:15:46.189Z,56.97
2023-02-09T19:18:19.912Z,56.90
2023-02-09T19:20:47.602Z,56.43
2023-02-09T19:23:14.760Z,55.31
2023-02-09T19:25:42.605Z,54.30
2023-02-09T19:28:12.152Z,53.57
2023-02-09T19:30:40.948Z,53.72
2023-02-09T19:33:11.775Z,53.85
2023-02-09T19:35:39.057Z,54.52
2023-02-09T19:38:11.199Z,55.16
2023-02-09T19:40:41.346Z,55.08
2023-02-09T19:43:13.857Z,53.49
2023-02-09T19:45:44.914Z,53.01
2023-02-09T19:48:12.692Z,53.23
2023-02-09T19:50:58.293Z,53.80
2023-02-09T19:53:26.347Z,54.19
2023-02-09T19:55:56.873Z,54.82
2023-02-09T19:58:29.955Z,54.78
2023-02-09T20:00:57.756Z,53.64
2023-02-09T20:03:29.973Z,53.10
2023-02-09T20:06:00.425Z,53.58
2023-02-09T20:08:27.982Z,54.21
2023-02-09T20:11:01.020Z,54.28
2023-02-09T20:13:28.575Z,54.85
2023-02-09T20:16:16.280Z,55.37
2023-02-09T20:18:49.574Z,54.02
2023-02-09T20:21:19.085Z,53.57
2023-02-09T20:23:46.870Z,53.24
2023-02-09T20:26:35.840Z,54.07
2023-02-09T20:29:06.614Z,54.97
2023-02-09T20:31:44.763Z,54.71
2023-02-09T20:34:15.666Z,55.13
2023-02-09T20:36:44.845Z,54.03
2023-02-09T20:39:16.047Z,53.37
2023-02-09T20:42:07.223Z,53.44
2023-02-09T20:44:53.303Z,53.45
2023-02-09T20:47:43.508Z,54.32
2023-02-09T20:50:17.902Z,54.72
2023-02-09T20:52:45.754Z,54.27
2023-02-09T20:55:13.232Z,53.16
2023-02-09T20:57:40.851Z,52.94
2023-02-09T21:00:11.667Z,53.06
2023-02-09T21:02:39.160Z,53.74
2023-02-09T21:05:09.921Z,54.71
2023-02-09T21:07:39.537Z,54.56
2023-02-09T21:10:12.922Z,53.85
2023-02-09T21:12:41.686Z,53.32
2023-02-09T21:15:16.640Z,53.56
2023-02-09T21:17:48.682Z,54.11
2023-02-09T21:20:33.801Z,54.62
2023-02-09T21:23:08.399Z,55.53
2023-02-09T21:25:36.806Z,54.92
2023-02-09T21:28:13.134Z,53.86
2023-02-09T21:30:43.896Z,53.67
2023-02-09T21:33:11.364Z,54.04
2023-02-09T21:35:43.607Z,54.13
2023-02-09T21:38:23.499Z,54.81
2023-02-09T21:40:53.665Z,55.14
2023-02-09T21:43:26.568Z,54.19
2023-02-09T21:45:53.768Z,54.30
2023-02-09T21:48:23.925Z,54.69
2023-02-09T21:50:54.717Z,54.50
2023-02-09T21:53:28.198Z,54.62
2023-02-09T21:55:58.638Z,55.23
2023-02-09T21:58:26.253Z,54.08
2023-02-09T22:01:01.665Z,53.41
2023-02-09T22:03:29.582Z,53.39
2023-02-09T22:06:02.678Z,53.81
2023-02-09T22:08:36.244Z,54.28
2023-02-09T22:11:05.932Z,54.66
2023-02-09T22:13:36.445Z,54.14
2023-02-09T22:16:07.645Z,53.27
2023-02-09T22:18:38.733Z,53.54
2023-02-09T22:21:06.484Z,54.24
2023-02-09T22:23:33.754Z,54.88
2023-02-09T22:26:05.197Z,55.35
2023-02-09T22:28:36.910Z,54.03
2023-02-09T22:31:08.585Z,53.51
2023-02-09T22:33:39.076Z,54.23
2023-02-09T22:36:11.665Z,55.37
2023-02-09T22:38:42.317Z,56.25
2023-02-09T22:41:23.917Z,55.64
2023-02-09T22:44:34.174Z,54.49
2023-02-09T22:47:32.663Z,54.95
2023-02-09T22:50:02.731Z,56.16
2023-02-09T22:52:33.447Z,56.83
2023-02-09T22:55:01.766Z,55.95
2023-02-09T22:57:34.548Z,54.93
2023-02-09T23:00:10.805Z,54.98
2023-02-09T23:02:49.953Z,55.63
2023-02-09T23:05:40.857Z,56.62
2023-02-09T23:08:14.167Z,55.79
2023-02-09T23:10:44.782Z,54.67
2023-02-09T23:13:17.018Z,54.55
2023-02-09T23:15:47.460Z,54.78
2023-02-09T23:18:15.646Z,55.50
2023-02-09T23:21:09.512Z,56.23
2023-02-09T23:23:36.841Z,55.34
2023-02-09T23:26:18.187Z,54.49
2023-02-09T23:28:48.742Z,54.82
2023-02-09T23:31:38.727Z,55.10
2023-02-09T23:34:24.718Z,55.81
2023-02-09T23:37:19.120Z,55.11
2023-02-09T23:39:56.135Z,54.39
2023-02-09T23:42:54.903Z,54.75
2023-02-09T23:45:41.198Z,55.18
2023-02-09T23:48:28.667Z,56.00
2023-02-09T23:51:03.490Z,55.24
2023-02-09T23:53:33.134Z,54.80
2023-02-09T23:56:06.641Z,54.61
2023-02-09T23:58:39.690Z,55.51
